This is the latest recevied weather packets stored in our database for station/object IW7DVM-13. If no packets are shown the sender has not sent any weather packets the latest 10 day(s).
| Time | Temp. | Humidity | Pressure | Rain* | Wind** | Luminosity | Snow |
|---|---|---|---|---|---|---|---|
| 1787667903 | 31.67° C | 64% | 1006.9 hPa | 0 mm | - | - | - |
| 1787667603 | 31.11° C | 64% | 1006.8 hPa | 0 mm | - | - | - |
| 1787667303 | 31.11° C | 64% | 1006.8 hPa | 0 mm | - | - | - |
| 1787667003 | 31.11° C | 64% | 1006.8 hPa | 0 mm | - | - | - |
| 1787666703 | 31.11° C | 64% | 1006.9 hPa | 0 mm | - | - | - |
| 1787666405 | 31.11° C | 63% | 1006.9 hPa | 0 mm | - | - | - |
| 1787666103 | 31.67° C | 63% | 1006.8 hPa | 0 mm | - | - | - |
| 1787665803 | 32.22° C | 62% | 1006.9 hPa | 0 mm | - | - | - |
| 1787665503 | 32.22° C | 63% | 1007 hPa | 0 mm | - | - | - |
| 1787665203 | 31.67° C | 63% | 1006.8 hPa | 0 mm | - | - | - |
| 1787664903 | 31.67° C | 63% | 1006.7 hPa | 0 mm | - | - | - |
| 1787664603 | 32.22° C | 62% | 1007 hPa | 0 mm | - | - | - |
| 1787664303 | 32.22° C | 62% | 1007 hPa | 0 mm | - | - | - |
| 1787664003 | 32.22° C | 62% | 1007.1 hPa | 0 mm | - | - | - |
| 1787663704 | 31.67° C | 62% | 1006.9 hPa | 0 mm | - | - | - |
| 1787663403 | 31.67° C | 62% | 1007 hPa | 0 mm | - | - | - |
| 1787663103 | 31.67° C | 62% | 1007 hPa | 0 mm | - | - | - |
| 1787662803 | 32.22° C | 61% | 1007.1 hPa | 0 mm | - | - | - |
| 1787662503 | 31.67° C | 62% | 1007.1 hPa | 0 mm | - | - | - |
| 1787662203 | 32.22° C | 62% | 1007.3 hPa | 0 mm | - | - | - |
| 1787661903 | 32.22° C | 63% | 1007.4 hPa | 0 mm | - | - | - |
| 1787661603 | 31.11° C | 63% | 1007.3 hPa | 0 mm | - | - | - |
| 1787661303 | 31.11° C | 63% | 1007.4 hPa | 0 mm | - | - | - |
| 1787661003 | 31.11° C | 63% | 1007.4 hPa | 0 mm | - | - | - |
| 1787660703 | 31.11° C | 62% | 1007.4 hPa | 0 mm | - | - | - |
* Rain latest hour (hover to see other rain measurements)
** Current wind speed in m/s (hover to see current wind gust speed)